createdAt,value
2022-11-09T00:01:50.087Z,89.29
2022-11-09T00:06:53.829Z,89.14
2022-11-09T00:11:57.425Z,89.40
2022-11-09T00:17:01.559Z,89.34
2022-11-09T00:22:05.073Z,89.04
2022-11-09T00:27:08.587Z,89.03
2022-11-09T00:32:12.106Z,89.22
2022-11-09T00:37:15.751Z,89.17
2022-11-09T00:42:19.341Z,88.94
2022-11-09T00:47:23.263Z,88.70
2022-11-09T00:52:26.785Z,88.76
2022-11-09T00:57:30.296Z,88.62
2022-11-09T01:02:33.812Z,88.50
2022-11-09T01:07:38.525Z,88.86
2022-11-09T01:12:41.964Z,88.81
2022-11-09T01:17:45.793Z,88.59
2022-11-09T01:22:49.100Z,88.44
2022-11-09T01:27:52.612Z,88.30
2022-11-09T01:32:56.028Z,88.60
2022-11-09T01:37:59.542Z,88.53
2022-11-09T01:43:18.871Z,88.53
2022-11-09T01:48:38.935Z,88.65
2022-11-09T01:53:45.411Z,88.46
2022-11-09T01:59:03.165Z,88.50
2022-11-09T02:04:30.439Z,88.89
2022-11-09T02:10:00.477Z,88.68
2022-11-09T02:15:07.192Z,88.75
2022-11-09T02:20:15.794Z,88.91
2022-11-09T02:25:19.625Z,88.77
2022-11-09T02:30:25.297Z,88.71
2022-11-09T02:35:28.704Z,88.96
2022-11-09T02:40:38.068Z,88.97
2022-11-09T02:45:41.364Z,88.90
2022-11-09T02:50:44.677Z,88.98
2022-11-09T02:55:48.194Z,89.15
2022-11-09T03:00:51.536Z,89.12
2022-11-09T03:05:55.018Z,88.95
2022-11-09T03:11:00.655Z,89.26
2022-11-09T03:16:08.617Z,89.33
2022-11-09T03:21:11.917Z,89.56
2022-11-09T03:26:15.890Z,89.46
2022-11-09T03:31:19.353Z,89.48
2022-11-09T03:36:22.664Z,89.61
2022-11-09T03:41:26.078Z,89.60
2022-11-09T03:46:29.599Z,89.68
2022-11-09T03:51:33.211Z,89.40
2022-11-09T03:56:36.522Z,89.58
2022-11-09T04:01:40.104Z,89.60
2022-11-09T04:06:43.694Z,89.61
2022-11-09T04:11:47.173Z,89.61
2022-11-09T04:16:50.587Z,89.55
2022-11-09T04:21:53.997Z,89.83
2022-11-09T04:26:57.516Z,89.85
2022-11-09T04:32:00.927Z,89.89
2022-11-09T04:37:04.544Z,89.56
2022-11-09T04:42:08.062Z,89.68
2022-11-09T04:47:11.474Z,89.77
2022-11-09T04:52:14.993Z,89.64
2022-11-09T04:57:18.608Z,89.39
2022-11-09T05:02:22.124Z,89.56
2022-11-09T05:07:25.843Z,89.45
2022-11-09T05:12:29.563Z,89.24
2022-11-09T05:17:33.080Z,89.35
2022-11-09T05:22:59.019Z,89.59
2022-11-09T05:28:02.536Z,89.66
2022-11-09T05:33:06.464Z,89.56
2022-11-09T05:38:09.877Z,89.64
2022-11-09T05:43:13.294Z,89.48
2022-11-09T05:48:18.135Z,89.38
2022-11-09T05:53:22.111Z,89.50
2022-11-09T05:58:25.782Z,89.38
2022-11-09T06:03:29.196Z,89.25
2022-11-09T06:08:33.220Z,89.30
2022-11-09T06:13:37.351Z,89.62
2022-11-09T06:18:41.074Z,89.37
2022-11-09T06:23:44.797Z,89.65
2022-11-09T06:28:48.207Z,89.68
2022-11-09T06:33:51.621Z,89.58
2022-11-09T06:38:55.339Z,89.66
2022-11-09T06:43:58.650Z,89.70
2022-11-09T06:49:02.166Z,89.62
2022-11-09T06:54:05.783Z,89.89
2022-11-09T06:59:09.504Z,89.95
2022-11-09T07:04:14.553Z,90.14
2022-11-09T07:09:18.483Z,89.91
2022-11-09T07:14:25.357Z,89.97
2022-11-09T07:19:30.223Z,89.85
2022-11-09T07:24:33.636Z,89.91
2022-11-09T07:29:37.047Z,89.71
2022-11-09T07:34:40.569Z,89.62
2022-11-09T07:39:44.082Z,89.59
2022-11-09T07:44:47.598Z,89.46
2022-11-09T07:49:51.010Z,89.41
2022-11-09T07:54:54.526Z,89.44
2022-11-09T07:59:59.420Z,89.16
2022-11-09T08:05:03.506Z,89.33
2022-11-09T08:10:07.226Z,88.99
2022-11-09T08:15:11.358Z,88.89
2022-11-09T08:20:15.809Z,88.87
2022-11-09T08:25:19.506Z,88.88
2022-11-09T08:30:23.263Z,88.61
2022-11-09T08:35:27.663Z,88.52
2022-11-09T08:40:32.795Z,88.29
2022-11-09T08:45:38.506Z,88.33
2022-11-09T08:50:41.897Z,88.34
2022-11-09T08:55:49.298Z,88.40
2022-11-09T09:00:53.230Z,87.95
2022-11-09T09:05:56.640Z,88.13
2022-11-09T09:11:06.827Z,88.12
2022-11-09T09:16:15.459Z,87.81
2022-11-09T09:21:18.883Z,87.68
2022-11-09T09:26:22.479Z,87.73
2022-11-09T09:31:25.996Z,87.75
2022-11-09T09:36:29.419Z,87.34
2022-11-09T09:41:35.590Z,87.54
2022-11-09T09:46:46.372Z,87.39
2022-11-09T09:51:57.261Z,87.26
2022-11-09T09:57:01.903Z,87.01
2022-11-09T10:02:23.647Z,87.15
2022-11-09T10:07:33.311Z,86.52
2022-11-09T10:12:51.874Z,86.74
2022-11-09T10:18:27.646Z,86.46
2022-11-09T10:23:59.630Z,86.15
2022-11-09T10:29:21.791Z,85.72
2022-11-09T10:34:37.789Z,85.93
2022-11-09T10:39:48.064Z,85.59
2022-11-09T10:44:51.374Z,85.28
2022-11-09T10:50:07.383Z,84.29
2022-11-09T10:55:17.247Z,84.16
2022-11-09T11:00:22.305Z,83.97
2022-11-09T11:05:28.389Z,83.71
2022-11-09T11:10:31.585Z,83.37
2022-11-09T11:15:40.164Z,83.00
2022-11-09T11:20:43.427Z,82.56
2022-11-09T11:25:56.180Z,81.92
2022-11-09T11:30:59.366Z,81.88
2022-11-09T11:36:27.562Z,81.95
2022-11-09T11:42:02.206Z,81.57
2022-11-09T11:47:25.702Z,81.23
2022-11-09T11:52:54.296Z,80.73
2022-11-09T11:58:39.489Z,80.43
2022-11-09T12:04:16.079Z,80.39
2022-11-09T12:09:28.605Z,80.04
2022-11-09T12:14:50.859Z,80.18
2022-11-09T12:20:00.007Z,79.69
2022-11-09T12:25:16.838Z,79.64
2022-11-09T12:30:24.329Z,79.00
2022-11-09T12:35:37.143Z,78.81
2022-11-09T12:40:52.279Z,79.19
2022-11-09T12:45:56.911Z,79.05
2022-11-09T12:51:02.823Z,79.31
2022-11-09T12:56:32.413Z,78.99
2022-11-09T13:01:35.544Z,78.74
2022-11-09T13:06:38.867Z,78.45
2022-11-09T13:11:48.932Z,78.59
2022-11-09T13:16:55.962Z,78.52
2022-11-09T13:21:59.099Z,77.79
2022-11-09T13:27:03.842Z,77.92
2022-11-09T13:32:12.991Z,77.89
2022-11-09T13:37:41.490Z,77.82
2022-11-09T13:42:53.793Z,77.94
2022-11-09T13:47:57.244Z,77.88
2022-11-09T13:53:01.356Z,77.84
2022-11-09T13:58:31.861Z,77.98
2022-11-09T14:03:35.017Z,78.02
2022-11-09T14:08:41.222Z,78.31
2022-11-09T14:14:03.378Z,78.32
2022-11-09T14:19:12.897Z,78.40
2022-11-09T14:24:20.615Z,78.40
2022-11-09T14:29:25.976Z,78.68
2022-11-09T14:34:29.896Z,78.44
2022-11-09T14:39:37.507Z,79.20
2022-11-09T14:44:44.506Z,79.07
2022-11-09T14:49:49.042Z,79.07
2022-11-09T14:54:53.994Z,79.22
2022-11-09T14:59:58.020Z,79.24
2022-11-09T15:05:04.501Z,79.30
2022-11-09T15:10:20.092Z,79.55
2022-11-09T15:15:26.317Z,79.42
2022-11-09T15:20:33.466Z,79.62
2022-11-09T15:25:54.259Z,79.82
2022-11-09T15:30:57.411Z,80.03
2022-11-09T15:36:07.802Z,80.18
2022-11-09T15:41:19.703Z,80.43
2022-11-09T15:46:28.801Z,80.60
2022-11-09T15:51:32.059Z,80.81
2022-11-09T15:56:35.271Z,80.96
2022-11-09T16:01:40.215Z,80.96
2022-11-09T16:06:46.581Z,81.19
2022-11-09T16:11:50.319Z,81.45
2022-11-09T16:16:53.630Z,81.62
2022-11-09T16:21:57.556Z,82.11
2022-11-09T16:27:01.276Z,81.96
2022-11-09T16:32:04.746Z,82.03
2022-11-09T16:37:08.203Z,82.35
2022-11-09T16:42:14.253Z,82.53
2022-11-09T16:47:19.593Z,82.65
2022-11-09T16:52:23.566Z,82.87
2022-11-09T16:57:27.094Z,82.98
2022-11-09T17:02:30.330Z,82.96
2022-11-09T17:07:42.016Z,83.06
2022-11-09T17:12:45.925Z,83.07
2022-11-09T17:17:49.536Z,83.40
2022-11-09T17:22:52.745Z,83.16
2022-11-09T17:27:56.054Z,83.69
2022-11-09T17:32:59.572Z,83.82
2022-11-09T17:38:03.905Z,83.72
2022-11-09T17:43:06.909Z,84.00
2022-11-09T17:48:10.226Z,84.29
2022-11-09T17:53:13.540Z,84.41
2022-11-09T17:58:17.165Z,84.41
2022-11-09T18:03:20.463Z,84.76
2022-11-09T18:08:23.795Z,84.73
2022-11-09T18:13:27.705Z,84.95
2022-11-09T18:18:30.902Z,85.15
2022-11-09T18:23:35.547Z,85.31
2022-11-09T18:28:39.367Z,85.27
2022-11-09T18:33:43.295Z,85.31
2022-11-09T18:38:46.708Z,85.66
2022-11-09T18:43:51.561Z,85.68
2022-11-09T18:48:54.971Z,85.71
2022-11-09T18:53:58.178Z,85.94
2022-11-09T18:59:01.488Z,86.21
2022-11-09T19:04:05.209Z,86.40
2022-11-09T19:09:35.051Z,86.38
2022-11-09T19:14:41.299Z,86.76
2022-11-09T19:19:44.632Z,86.90
2022-11-09T19:24:47.840Z,87.19
2022-11-09T19:29:51.047Z,87.32
2022-11-09T19:34:54.362Z,87.32
2022-11-09T19:39:57.567Z,87.26
2022-11-09T19:45:00.980Z,87.42
2022-11-09T19:50:04.869Z,87.75
2022-11-09T19:55:09.036Z,87.77
2022-11-09T20:00:12.714Z,88.01
2022-11-09T20:05:16.167Z,88.29
2022-11-09T20:10:19.378Z,88.17
2022-11-09T20:15:23.199Z,88.60
2022-11-09T20:20:26.511Z,88.38
2022-11-09T20:25:30.134Z,88.46
2022-11-09T20:30:33.547Z,88.30
2022-11-09T20:35:36.958Z,88.68
2022-11-09T20:40:40.394Z,88.53
2022-11-09T20:45:43.889Z,88.49
2022-11-09T20:50:48.362Z,88.49
2022-11-09T20:55:53.144Z,88.70
2022-11-09T21:01:07.799Z,88.62
2022-11-09T21:06:12.876Z,88.23
2022-11-09T21:11:17.138Z,88.39
2022-11-09T21:16:21.689Z,88.14
2022-11-09T21:21:25.480Z,88.44
2022-11-09T21:26:48.059Z,88.52
2022-11-09T21:31:51.465Z,88.48
2022-11-09T21:36:55.681Z,88.70
2022-11-09T21:41:59.115Z,88.94
2022-11-09T21:47:03.344Z,88.74
2022-11-09T21:52:07.165Z,88.68
2022-11-09T21:57:10.580Z,88.64
2022-11-09T22:02:14.094Z,89.27
2022-11-09T22:07:17.966Z,89.34
2022-11-09T22:12:40.078Z,89.32
2022-11-09T22:17:43.585Z,89.00
2022-11-09T22:22:47.100Z,89.14
2022-11-09T22:27:50.615Z,89.06
2022-11-09T22:32:54.131Z,89.21
2022-11-09T22:38:02.153Z,89.40
2022-11-09T22:43:05.464Z,89.45
2022-11-09T22:48:09.183Z,89.69
2022-11-09T22:53:12.701Z,89.67
2022-11-09T22:58:16.113Z,89.49
2022-11-09T23:03:20.383Z,89.42
2022-11-09T23:08:24.168Z,89.42
2022-11-09T23:13:27.788Z,89.86
2022-11-09T23:18:50.153Z,89.88
2022-11-09T23:23:55.521Z,90.05
2022-11-09T23:28:59.632Z,90.29
2022-11-09T23:34:08.838Z,90.00
2022-11-09T23:39:13.317Z,90.03
2022-11-09T23:44:16.526Z,89.87
2022-11-09T23:49:19.837Z,89.82
2022-11-09T23:54:23.047Z,89.70
2022-11-09T23:59:26.357Z,89.93
